Time;durP1;ratioP1;P1;durP2;ratioP2;P2;SDS_P1;SDS_P2;PMS_P1;PMS_P2;Temp;Humidity;BMP_temperature;BMP_pressure;BME280_temperature;BME280_humidity;BME280_pressure;Samples;Min_cycle;Max_cycle;Signal;HPM_P1;HPM_P2
2022/12/16 00:01:09;;;;;;;40.85;26.02;;;0.90;99.90;;;;;;5072387;28;20128;-68
2022/12/16 00:03:34;;;;;;;39.95;25.80;;;0.90;99.90;;;;;;5072402;28;20082;-68
2022/12/16 00:06:02;;;;;;;37.00;24.98;;;0.90;99.90;;;;;;5072225;28;20045;-68
2022/12/16 00:08:28;;;;;;;34.63;23.85;;;0.80;99.90;;;;;;5072210;28;20052;-68
2022/12/16 00:10:57;;;;;;;37.78;25.80;;;0.90;99.90;;;;;;5072281;28;20046;-68
2022/12/16 00:13:23;;;;;;;33.88;23.50;;;0.90;99.90;;;;;;5073745;28;20036;-68
2022/12/16 00:15:48;;;;;;;38.08;25.73;;;0.90;99.90;;;;;;5072121;28;20455;-68
2022/12/16 00:18:14;;;;;;;37.97;26.33;;;0.90;99.90;;;;;;5072156;28;20079;-68
2022/12/16 00:20:47;;;;;;;36.30;24.42;;;0.80;99.90;;;;;;5072105;28;20036;-68
2022/12/16 00:23:13;;;;;;;;;;;0.90;99.90;;;;;;5072549;28;20120;-68
2022/12/16 00:25:41;;;;;;;33.83;24.23;;;0.80;99.90;;;;;;5072246;28;20003;-68
2022/12/16 00:28:07;;;;;;;35.20;24.92;;;0.80;99.90;;;;;;5072068;28;20041;-68
2022/12/16 00:30:32;;;;;;;35.60;24.88;;;0.90;99.90;;;;;;5072270;28;20498;-68
2022/12/16 00:32:58;;;;;;;39.28;25.42;;;0.90;99.90;;;;;;5071988;28;20386;-68
2022/12/16 00:35:23;;;;;;;36.30;24.90;;;0.90;99.90;;;;;;5071852;28;20041;-68
2022/12/16 00:37:49;;;;;;;38.85;25.92;;;0.90;99.90;;;;;;5072120;28;20040;-68
2022/12/16 00:40:14;;;;;;;33.25;23.30;;;0.90;99.90;;;;;;5071866;28;20094;-68
2022/12/16 00:42:40;;;;;;;33.25;24.38;;;0.90;99.90;;;;;;5072121;28;20485;-68
2022/12/16 00:45:06;;;;;;;35.13;23.20;;;0.90;99.90;;;;;;5071992;28;20493;-68
2022/12/16 00:47:32;;;;;;;30.55;23.05;;;0.90;99.90;;;;;;5071532;28;20044;-68
2022/12/16 00:49:57;;;;;;;34.58;24.48;;;0.80;99.90;;;;;;5071793;28;20037;-68
2022/12/16 00:52:23;;;;;;;36.63;25.67;;;0.80;99.90;;;;;;5071996;28;20049;-68
2022/12/16 00:54:48;;;;;;;37.70;24.60;;;0.80;99.90;;;;;;5071628;28;20036;-68
2022/12/16 00:57:14;;;;;;;37.72;25.67;;;0.80;99.90;;;;;;5071661;28;20052;-68
2022/12/16 00:59:40;;;;;;;38.50;26.40;;;0.70;99.90;;;;;;5073221;28;20055;-68
2022/12/16 01:02:05;;;;;;;35.78;24.98;;;0.70;99.90;;;;;;5071675;28;20451;-68
2022/12/16 01:04:31;;;;;;;35.65;26.58;;;0.80;99.90;;;;;;5071617;28;20101;-68
2022/12/16 01:06:56;;;;;;;40.78;25.33;;;0.80;99.90;;;;;;5071753;28;20068;-68
2022/12/16 01:09:22;;;;;;;36.83;25.42;;;0.80;99.90;;;;;;5071628;28;20036;-68
2022/12/16 01:11:47;;;;;;;35.08;24.15;;;0.80;99.90;;;;;;5071695;28;20085;-68
2022/12/16 01:14:13;;;;;;;34.78;24.40;;;0.80;99.90;;;;;;5073082;28;20077;-68
2022/12/16 01:16:39;;;;;;;36.67;24.75;;;0.80;99.90;;;;;;5071499;28;20041;-68
2022/12/16 01:19:04;;;;;;;34.75;24.30;;;0.80;99.90;;;;;;5071766;28;20040;-68
2022/12/16 01:21:30;;;;;;;36.25;24.77;;;0.80;99.90;;;;;;5071476;28;20040;-68
2022/12/16 01:23:55;;;;;;;37.20;24.77;;;0.90;99.90;;;;;;5071480;28;20028;-68
2022/12/16 01:26:21;;;;;;;33.15;23.63;;;0.90;99.90;;;;;;5071375;28;20037;-68
2022/12/16 01:28:47;;;;;;;30.98;23.33;;;0.90;99.90;;;;;;5071336;28;20044;-68
2022/12/16 01:31:15;;;;;;;32.38;23.67;;;0.90;99.90;;;;;;5071399;28;20045;-68
2022/12/16 01:33:41;;;;;;;34.88;24.05;;;0.80;99.90;;;;;;5071609;28;20045;-68
2022/12/16 01:36:08;;;;;;;34.63;24.30;;;0.80;99.90;;;;;;5071264;28;20456;-68
2022/12/16 01:38:34;;;;;;;32.58;22.25;;;0.90;99.90;;;;;;5071340;28;20044;-68
2022/12/16 01:41:00;;;;;;;36.60;24.70;;;0.90;99.90;;;;;;5071589;28;20059;-68
2022/12/16 01:43:29;;;;;;;33.20;23.38;;;0.80;99.90;;;;;;5071289;28;20440;-68
2022/12/16 01:46:02;;;;;;;32.20;23.05;;;0.90;99.90;;;;;;5071146;28;20468;-68
2022/12/16 01:48:44;;;;;;;33.65;23.73;;;0.90;99.90;;;;;;5071202;28;20086;-68
2022/12/16 01:51:31;;;;;;;32.22;23.33;;;0.90;99.90;;;;;;5071274;28;20040;-68
2022/12/16 01:54:02;;;;;;;34.03;23.88;;;0.90;99.90;;;;;;5071238;28;20048;-68
2022/12/16 01:56:30;;;;;;;39.63;24.40;;;0.90;99.90;;;;;;5071112;28;20041;-68
2022/12/16 01:58:57;;;;;;;37.70;23.92;;;0.80;99.90;;;;;;5071108;28;20460;-68
2022/12/16 02:01:22;;;;;;;37.67;24.67;;;0.90;99.90;;;;;;5074490;28;20093;-68
2022/12/16 02:03:51;;;;;;;35.85;25.13;;;0.80;99.90;;;;;;5074679;28;20044;-68
2022/12/16 02:06:17;;;;;;;33.55;23.65;;;0.80;99.90;;;;;;5074519;28;20052;-68
2022/12/16 02:08:42;;;;;;;37.92;24.90;;;0.80;99.90;;;;;;5074530;28;20048;-68
2022/12/16 02:11:32;;;;;;;33.33;25.67;;;0.90;99.90;;;;;;5074563;28;20072;-68
2022/12/16 02:14:25;;;;;;;41.55;25.40;;;0.90;99.90;;;;;;5074535;28;20082;-68
2022/12/16 02:17:18;;;;;;;37.75;26.27;;;0.80;99.90;;;;;;5074486;28;20041;-68
2022/12/16 02:20:05;;;;;;;39.97;25.10;;;0.80;99.90;;;;;;5074412;28;20080;-68
2022/12/16 02:22:59;;;;;;;36.22;25.05;;;0.80;99.90;;;;;;5074637;28;20119;-68
2022/12/16 02:25:30;;;;;;;;;;;0.80;99.90;;;;;;5074941;28;20133;-68
2022/12/16 02:28:22;;;;;;;34.38;23.58;;;0.70;99.90;;;;;;5074163;28;19959;-68
2022/12/16 02:31:10;;;;;;;36.80;24.98;;;0.70;99.90;;;;;;5074214;28;20068;-68
2022/12/16 02:33:53;;;;;;;37.28;24.92;;;0.80;99.90;;;;;;5074180;28;20040;-68
2022/12/16 02:36:44;;;;;;;32.20;23.50;;;0.80;99.90;;;;;;5075379;28;20444;-68
2022/12/16 02:39:21;;;;;;;35.42;24.38;;;0.80;99.90;;;;;;5074052;28;20461;-68
2022/12/16 02:41:55;;;;;;;37.15;23.63;;;0.80;99.90;;;;;;5073964;28;20486;-68
2022/12/16 02:44:44;;;;;;;33.55;24.27;;;0.90;99.90;;;;;;5073905;28;20416;-68
2022/12/16 02:47:09;;;;;;;38.05;24.27;;;0.90;99.90;;;;;;5073730;28;20044;-68
2022/12/16 02:49:44;;;;;;;34.40;23.20;;;0.80;99.90;;;;;;5074111;28;20444;-68
2022/12/16 02:52:10;;;;;;;32.65;22.20;;;0.90;99.90;;;;;;5073801;28;20036;-68
2022/12/16 02:54:36;;;;;;;35.35;25.42;;;0.90;99.90;;;;;;5073656;28;20043;-68
2022/12/16 02:57:52;;;;;;;33.08;21.95;;;0.90;99.90;;;;;;5073692;28;20045;-67
2022/12/16 03:00:21;;;;;;;32.70;22.05;;;0.90;99.90;;;;;;5016729;28;20045;-67
2022/12/16 03:02:58;;;;;;;33.53;23.08;;;0.90;99.90;;;;;;5016503;28;20093;-68
2022/12/16 03:05:34;;;;;;;36.55;23.42;;;0.90;99.90;;;;;;5046952;28;20056;-68
2022/12/16 03:08:04;;;;;;;32.08;22.02;;;0.90;99.90;;;;;;5073373;28;20076;-68
2022/12/16 03:10:38;;;;;;;31.38;22.40;;;0.90;99.90;;;;;;5073600;28;20048;-67
2022/12/16 03:13:06;;;;;;;32.70;23.15;;;0.90;99.90;;;;;;5056965;28;20116;-67
2022/12/16 03:15:33;;;;;;;37.15;24.65;;;1.00;99.90;;;;;;5074725;28;20116;-68
2022/12/16 03:18:01;;;;;;;33.63;22.60;;;0.90;99.90;;;;;;5073236;28;20436;-68
2022/12/16 03:20:49;;;;;;;32.55;22.65;;;1.00;99.90;;;;;;5074482;28;20036;-68
2022/12/16 03:23:19;;;;;;;34.35;24.58;;;1.00;99.90;;;;;;5073428;28;20048;-68
2022/12/16 03:25:47;;;;;;;33.65;21.45;;;0.90;99.90;;;;;;5073022;28;20052;-68
2022/12/16 03:28:25;;;;;;;30.40;21.23;;;1.00;99.90;;;;;;5056300;28;20090;-68
2022/12/16 03:31:11;;;;;;;30.05;21.17;;;0.90;99.90;;;;;;5073029;28;20400;-68
2022/12/16 03:34:09;;;;;;;32.88;20.25;;;1.00;99.90;;;;;;5073001;28;20119;-68
2022/12/16 03:36:36;;;;;;;29.08;21.20;;;1.00;99.90;;;;;;5072787;28;20055;-68
2022/12/16 03:39:03;;;;;;;29.63;21.58;;;1.00;99.90;;;;;;5072880;28;20067;-68
2022/12/16 03:41:31;;;;;;;32.50;21.13;;;0.90;99.90;;;;;;5056444;28;20044;-68
2022/12/16 03:43:57;;;;;;;31.13;21.60;;;1.00;99.90;;;;;;5073005;28;20044;-68
2022/12/16 03:46:22;;;;;;;28.08;19.15;;;1.00;99.90;;;;;;5072794;28;20374;-68
2022/12/16 03:48:50;;;;;;;30.70;20.75;;;1.00;99.90;;;;;;5074066;28;20501;-68
2022/12/16 03:51:19;;;;;;;32.40;21.25;;;1.00;99.90;;;;;;5072875;28;20076;-68
2022/12/16 03:53:45;;;;;;;30.85;21.50;;;0.90;99.90;;;;;;5072643;28;20386;-68
2022/12/16 03:56:12;;;;;;;24.77;18.15;;;1.00;99.90;;;;;;5072429;28;20089;-68
2022/12/16 03:58:41;;;;;;;21.85;15.68;;;0.90;99.90;;;;;;5072503;28;20094;-68
2022/12/16 04:01:08;;;;;;;23.50;15.23;;;0.90;99.90;;;;;;5072642;28;20417;-68
2022/12/16 04:03:35;;;;;;;18.85;12.77;;;1.00;99.90;;;;;;5072616;28;20055;-68
2022/12/16 04:06:00;;;;;;;16.92;12.60;;;1.00;99.90;;;;;;5072265;28;20093;-68
2022/12/16 04:08:26;;;;;;;19.85;12.20;;;1.00;99.90;;;;;;5072325;28;20131;-68
2022/12/16 04:24:37;;;;;;;11.18;6.78;;;1.10;99.90;;;;;;5072027;28;20513;-68
2022/12/16 04:34:24;;;;;;;11.05;6.20;;;1.20;99.90;;;;;;5072017;28;20044;-68
